Main page


Airports :

Scampton, England

RAF Scampton

latitude: 53-18-27N, longitude: 000-33-03W, elevation: 62 m

Current weather observation

The report was made 51 minutes ago, at 16:50 UTC
Wind 7 kt from the North/Northeast
Temperature 5°C
Humidity 93%
Pressure 1031 hPa
Visibility 10 km or more

METAR: EGXP 201650Z AUTO 03007KT 9999 // SCT019/// SCT036/// 05/04 Q1031

Time: 17:41 (17:41 UTC)


The report was made 4 hours and 18 minutes ago, at 13:23 UTC
Forecast valid from 20 at 15 UTC to 20 at 24 UTC
Wind 12 kt from the North/Northeast
Visibility 10 km or more
Scattered clouds at a height of 3000 ft
Probability 30% :
from 20 at 15 UTC to 20 at 18 UTC
Visibility: 7000 m
Scattered clouds at a height of 2200 ft
light rain showers

TAF: EGXP 201323Z 2015/2024 02012KT 9999 SCT030 PROB30 TEMPO 2015/2018 7000 -SHRA SCT022

Weather observations and forecasts of more than 4000 airports (METAR and TAF reports).

The available stations are represented by yellow and red dots on the map.

Hover mouse over dot to see the name of the station.

Then click to see weather observations and forecasts.

To change the map : click on the green buttons with a black cross to zoom in, on the green button with a dash to zoom out, or on the green arrows for adjacent maps.